Terminal Aerodrome Forecast
Issued by NWS Pocatello, ID

Home | Current Version | Previous Version | Text Only | Print | Product List | Glossary On
Versions: 1 2 3 4 5 6 7 8 9 10 11 12 13 14 15 16 17 18 19
000
FTUS45 KPIH 212300
TAFPIH
TAF
KPIH 212320Z 2200/2224 17015KT P6SM VCSH SCT060 SCT100 BKN200
      TEMPO 2201/2203 VRB15G25KT P6SM -SHRA BKN060 BKN100 OVC200
     FM220500 VRB05KT P6SM BKN100 BKN180
     FM220900 07006KT P6SM -SHRA SCT070 BKN100 BKN160
     FM221800 20015KT P6SM -SHRA VCTS FEW060CB BKN110 OVC180=

USA.gov is the U.S. government's official web portal to all federal, state and local government web resources and services.